Time,TemperatureF,DewpointF,PressureIn,WindDirection,WindDirectionDegrees,WindSpeedMPH,WindSpeedGustMPH,Humidity,HourlyPrecipIn,Conditions,Clouds,dailyrainin,SoftwareType,DateUTC
2013-07-13 00:02:00,59.4,46.8,29.73,ESE,117,2.0,3.0,63,0.00,,,0.00,meteohub,2013-07-13 06:02:00,
2013-07-13 00:07:00,59.0,46.8,29.73,ESE,117,2.0,3.0,64,0.00,,,0.00,meteohub,2013-07-13 06:07:00,
2013-07-13 00:12:00,59.2,46.6,29.73,ESE,108,3.0,3.0,63,0.00,,,0.00,meteohub,2013-07-13 06:12:00,
2013-07-13 00:17:00,59.4,46.4,29.73,SE,126,1.0,3.0,62,0.00,,,0.00,meteohub,2013-07-13 06:17:00,
2013-07-13 00:22:00,59.5,46.0,29.74,SE,140,1.0,3.0,61,0.00,,,0.00,meteohub,2013-07-13 06:22:00,
2013-07-13 00:27:00,59.5,45.7,29.74,SE,145,2.0,3.0,60,0.00,,,0.00,meteohub,2013-07-13 06:27:00,
2013-07-13 00:32:00,59.7,45.9,29.73,SW,235,2.0,4.0,60,0.00,,,0.00,meteohub,2013-07-13 06:32:00,
2013-07-13 00:37:00,60.1,45.7,29.74,South,169,2.0,4.0,59,0.00,,,0.00,meteohub,2013-07-13 06:37:00,
2013-07-13 00:42:00,60.3,45.9,29.74,SE,134,0.0,4.0,59,0.00,,,0.00,meteohub,2013-07-13 06:42:00,
2013-07-13 00:47:00,60.1,45.7,29.74,SSE,159,1.0,3.0,59,0.00,,,0.00,meteohub,2013-07-13 06:47:00,
2013-07-13 00:52:00,59.7,46.8,29.74,ESE,110,1.0,2.0,62,0.00,,,0.00,meteohub,2013-07-13 06:52:00,
2013-07-13 00:57:00,59.0,46.8,29.74,ESE,112,1.0,2.0,64,0.00,,,0.00,meteohub,2013-07-13 06:57:00,
2013-07-13 01:02:00,58.8,45.9,29.74,SSE,158,1.0,2.0,62,0.00,,,0.00,meteohub,2013-07-13 07:02:00,
2013-07-13 01:07:00,59.2,45.7,29.74,ESE,122,1.0,2.0,61,0.00,,,0.00,meteohub,2013-07-13 07:07:00,
2013-07-13 01:12:00,59.2,46.2,29.74,ESE,114,1.0,2.0,62,0.00,,,0.00,meteohub,2013-07-13 07:12:00,
2013-07-13 01:17:00,58.8,46.2,29.74,SE,128,1.0,3.0,63,0.00,,,0.00,meteohub,2013-07-13 07:17:00,
2013-07-13 01:22:00,58.8,45.9,29.74,SE,138,1.0,3.0,62,0.00,,,0.00,meteohub,2013-07-13 07:22:00,
2013-07-13 01:27:00,58.8,45.9,29.74,SSE,152,2.0,3.0,62,0.00,,,0.00,meteohub,2013-07-13 07:27:00,
2013-07-13 01:32:00,59.2,46.2,29.74,SE,138,2.0,4.0,62,0.00,,,0.00,meteohub,2013-07-13 07:32:00,
2013-07-13 01:37:00,59.2,46.2,29.74,SE,143,2.0,5.0,62,0.00,,,0.00,meteohub,2013-07-13 07:37:00,
2013-07-13 01:42:00,59.4,46.4,29.74,ESE,117,2.0,5.0,62,0.00,,,0.00,meteohub,2013-07-13 07:42:00,
2013-07-13 01:47:00,59.2,46.6,29.74,SE,136,3.0,5.0,63,0.00,,,0.00,meteohub,2013-07-13 07:47:00,
2013-07-13 01:52:00,59.2,46.6,29.74,SSE,160,1.0,5.0,63,0.00,,,0.00,meteohub,2013-07-13 07:52:00,
2013-07-13 01:57:00,59.2,46.6,29.74,SE,128,2.0,5.0,63,0.00,,,0.00,meteohub,2013-07-13 07:57:00,
2013-07-13 02:02:00,58.8,46.6,29.74,SE,133,1.0,4.0,64,0.00,,,0.00,meteohub,2013-07-13 08:02:00,
2013-07-13 02:07:00,58.8,46.6,29.74,SE,129,0.0,2.0,64,0.00,,,0.00,meteohub,2013-07-13 08:07:00,
2013-07-13 02:12:00,58.5,46.8,29.74,ESE,112,2.0,2.0,65,0.00,,,0.00,meteohub,2013-07-13 08:12:00,
2013-07-13 02:17:00,58.3,46.9,29.74,ESE,110,1.0,2.0,66,0.00,,,0.00,meteohub,2013-07-13 08:17:00,
2013-07-13 02:22:00,57.9,46.9,29.74,ESE,114,3.0,3.0,67,0.00,,,0.00,meteohub,2013-07-13 08:22:00,
2013-07-13 02:27:00,57.7,46.9,29.74,ESE,122,2.0,3.0,67,0.00,,,0.00,meteohub,2013-07-13 08:27:00,
2013-07-13 02:32:00,57.6,46.8,29.74,ESE,120,2.0,3.0,67,0.00,,,0.00,meteohub,2013-07-13 08:32:00,
2013-07-13 02:37:00,57.4,46.9,29.74,ESE,117,2.0,3.0,68,0.00,,,0.00,meteohub,2013-07-13 08:37:00,
2013-07-13 02:42:00,57.4,46.9,29.74,SE,139,1.0,3.0,68,0.00,,,0.00,meteohub,2013-07-13 08:42:00,
2013-07-13 02:47:00,57.2,46.8,29.74,SE,127,1.0,3.0,68,0.00,,,0.00,meteohub,2013-07-13 08:47:00,
2013-07-13 02:52:00,57.2,46.8,29.74,SSE,153,1.0,3.0,68,0.00,,,0.00,meteohub,2013-07-13 08:52:00,
2013-07-13 02:57:00,57.4,46.9,29.74,SSE,155,1.0,2.0,68,0.00,,,0.00,meteohub,2013-07-13 08:57:00,
2013-07-13 03:02:00,57.4,46.9,29.74,SSE,149,1.0,2.0,68,0.00,,,0.00,meteohub,2013-07-13 09:02:00,
2013-07-13 03:07:00,57.4,46.6,29.73,SSE,152,2.0,3.0,67,0.00,,,0.00,meteohub,2013-07-13 09:07:00,
2013-07-13 03:12:00,57.4,46.6,29.73,SE,140,1.0,3.0,67,0.00,,,0.00,meteohub,2013-07-13 09:12:00,
2013-07-13 03:17:00,57.2,46.8,29.73,SSE,152,1.0,3.0,68,0.00,,,0.00,meteohub,2013-07-13 09:17:00,
2013-07-13 03:22:00,57.0,46.6,29.73,SE,132,1.0,2.0,68,0.00,,,0.00,meteohub,2013-07-13 09:22:00,
2013-07-13 03:27:00,57.0,46.6,29.73,South,171,1.0,2.0,68,0.00,,,0.00,meteohub,2013-07-13 09:27:00,
2013-07-13 03:32:00,57.0,46.6,29.73,SSE,150,1.0,2.0,68,0.00,,,0.00,meteohub,2013-07-13 09:32:00,
2013-07-13 03:37:00,57.0,46.6,29.73,South,180,2.0,3.0,68,0.00,,,0.00,meteohub,2013-07-13 09:37:00,
2013-07-13 03:42:00,57.0,46.6,29.73,East,98,2.0,3.0,68,0.00,,,0.00,meteohub,2013-07-13 09:42:00,
2013-07-13 03:47:00,57.2,46.8,29.73,South,191,1.0,3.0,68,0.00,,,0.00,meteohub,2013-07-13 09:47:00,
2013-07-13 03:52:00,57.0,46.6,29.73,SSE,159,2.0,4.0,68,0.00,,,0.00,meteohub,2013-07-13 09:52:00,
2013-07-13 03:57:00,57.0,46.6,29.73,SE,146,2.0,4.0,68,0.00,,,0.00,meteohub,2013-07-13 09:57:00,
2013-07-13 04:02:00,56.8,46.4,29.74,SE,136,2.0,4.0,68,0.00,,,0.00,meteohub,2013-07-13 10:02:00,
2013-07-13 04:07:00,56.8,46.4,29.74,SE,138,2.0,4.0,68,0.00,,,0.00,meteohub,2013-07-13 10:07:00,
2013-07-13 04:12:00,57.0,46.6,29.73,SE,138,1.0,3.0,68,0.00,,,0.00,meteohub,2013-07-13 10:12:00,
2013-07-13 04:17:00,57.0,46.6,29.73,SE,146,1.0,3.0,68,0.00,,,0.00,meteohub,2013-07-13 10:17:00,
2013-07-13 04:22:00,56.8,46.4,29.73,ESE,110,1.0,3.0,68,0.00,,,0.00,meteohub,2013-07-13 10:22:00,
2013-07-13 04:27:00,56.7,46.2,29.73,ESE,102,1.0,3.0,68,0.00,,,0.00,meteohub,2013-07-13 10:27:00,
2013-07-13 04:32:00,56.5,46.4,29.73,ESE,112,1.0,2.0,69,0.00,,,0.00,meteohub,2013-07-13 10:32:00,
2013-07-13 04:37:00,56.1,46.0,29.73,SE,127,1.0,2.0,69,0.00,,,0.00,meteohub,2013-07-13 10:37:00,
2013-07-13 04:42:00,55.9,46.2,29.73,ESE,120,2.0,2.0,70,0.00,,,0.00,meteohub,2013-07-13 10:42:00,
2013-07-13 04:47:00,55.9,46.2,29.73,SE,126,1.0,3.0,70,0.00,,,0.00,meteohub,2013-07-13 10:47:00,
2013-07-13 04:52:00,55.9,46.2,29.73,SE,126,1.0,3.0,70,0.00,,,0.00,meteohub,2013-07-13 10:52:00,
2013-07-13 04:57:00,55.9,46.2,29.74,SSE,152,1.0,3.0,70,0.00,,,0.00,meteohub,2013-07-13 10:57:00,
2013-07-13 05:02:00,55.9,46.2,29.74,SE,133,2.0,3.0,70,0.00,,,0.00,meteohub,2013-07-13 11:02:00,
2013-07-13 05:07:00,55.9,46.2,29.74,SE,131,1.0,3.0,70,0.00,,,0.00,meteohub,2013-07-13 11:07:00,
2013-07-13 05:12:00,55.9,46.2,29.74,SE,125,1.0,3.0,70,0.00,,,0.00,meteohub,2013-07-13 11:12:00,
2013-07-13 05:17:00,55.8,46.6,29.74,ESE,120,2.0,3.0,71,0.00,,,0.00,meteohub,2013-07-13 11:17:00,
2013-07-13 05:22:00,55.8,46.6,29.74,ESE,117,2.0,2.0,71,0.00,,,0.00,meteohub,2013-07-13 11:22:00,
2013-07-13 05:27:00,55.8,46.6,29.74,ESE,120,2.0,3.0,71,0.00,,,0.00,meteohub,2013-07-13 11:27:00,
2013-07-13 05:32:00,55.8,46.6,29.74,SE,128,2.0,6.0,71,0.00,,,0.00,meteohub,2013-07-13 11:32:00,
2013-07-13 05:37:00,55.8,46.6,29.74,South,172,1.0,6.0,71,0.00,,,0.00,meteohub,2013-07-13 11:37:00,
2013-07-13 05:42:00,55.8,46.9,29.74,ESE,122,2.0,6.0,72,0.00,,,0.00,meteohub,2013-07-13 11:42:00,
2013-07-13 05:47:00,55.6,46.8,29.74,SSW,193,2.0,5.0,72,0.00,,,0.00,meteohub,2013-07-13 11:47:00,
2013-07-13 05:52:00,55.6,46.8,29.75,ESE,112,3.0,5.0,72,0.00,,,0.00,meteohub,2013-07-13 11:52:00,
2013-07-13 05:57:00,55.4,46.9,29.75,SE,139,1.0,5.0,73,0.00,,,0.00,meteohub,2013-07-13 11:57:00,
2013-07-13 06:02:00,55.4,46.9,29.75,SE,143,1.0,3.0,73,0.00,,,0.00,meteohub,2013-07-13 12:02:00,
2013-07-13 06:03:00,55.4,46.9,29.75,SE,141,1.0,3.0,73,0.00,,,0.00,meteohub,2013-07-13 12:03:00,
2013-07-13 06:08:00,55.2,46.8,29.75,SE,131,2.0,3.0,73,0.00,,,0.00,meteohub,2013-07-13 12:08:00,
2013-07-13 06:13:00,55.2,46.8,29.75,SE,136,1.0,3.0,73,0.00,,,0.00,meteohub,2013-07-13 12:13:00,
2013-07-13 06:18:00,55.4,46.9,29.75,SE,133,1.0,3.0,73,0.00,,,0.00,meteohub,2013-07-13 12:18:00,
2013-07-13 06:23:00,55.8,47.3,29.75,SE,130,1.0,3.0,73,0.00,,,0.00,meteohub,2013-07-13 12:23:00,
2013-07-13 06:28:00,56.1,47.3,29.75,ESE,110,1.0,3.0,72,0.00,,,0.00,meteohub,2013-07-13 12:28:00,
2013-07-13 06:33:00,56.7,47.7,29.75,ESE,120,1.0,3.0,72,0.00,,,0.00,meteohub,2013-07-13 12:33:00,
2013-07-13 06:38:00,57.4,47.7,29.75,ESE,110,2.0,3.0,70,0.00,,,0.00,meteohub,2013-07-13 12:38:00,
2013-07-13 06:43:00,57.6,47.8,29.75,SSE,160,0.0,3.0,70,0.00,,,0.00,meteohub,2013-07-13 12:43:00,
2013-07-13 06:48:00,57.6,47.8,29.75,SE,134,1.0,3.0,70,0.00,,,0.00,meteohub,2013-07-13 12:48:00,
2013-07-13 06:53:00,57.6,47.8,29.75,South,183,1.0,3.0,70,0.00,,,0.00,meteohub,2013-07-13 12:53:00,
2013-07-13 06:58:00,57.4,48.0,29.76,SE,128,0.0,3.0,71,0.00,,,0.00,meteohub,2013-07-13 12:58:00,
2013-07-13 07:04:00,57.6,48.2,29.76,SE,126,1.0,2.0,71,0.00,,,0.00,meteohub,2013-07-13 13:04:00,
2013-07-13 07:09:00,57.7,48.4,29.76,SE,135,1.0,2.0,71,0.00,,,0.00,meteohub,2013-07-13 13:09:00,
2013-07-13 07:14:00,57.9,48.6,29.75,ESE,117,0.0,2.0,71,0.00,,,0.00,meteohub,2013-07-13 13:14:00,
2013-07-13 07:19:00,58.1,48.7,29.76,ESE,117,0.0,3.0,71,0.00,,,0.00,meteohub,2013-07-13 13:19:00,
2013-07-13 07:24:00,58.3,48.6,29.76,SSE,149,1.0,3.0,70,0.00,,,0.00,meteohub,2013-07-13 13:24:00,
2013-07-13 07:29:00,58.6,48.9,29.76,SE,131,1.0,1.0,70,0.00,,,0.00,meteohub,2013-07-13 13:29:00,
2013-07-13 07:34:00,58.8,49.1,29.75,SE,132,0.0,2.0,70,0.00,,,0.00,meteohub,2013-07-13 13:34:00,
2013-07-13 07:39:00,59.2,49.1,29.76,ESE,117,0.0,2.0,69,0.00,,,0.00,meteohub,2013-07-13 13:39:00,
2013-07-13 07:44:00,59.4,48.7,29.76,South,190,0.0,2.0,68,0.00,,,0.00,meteohub,2013-07-13 13:44:00,
2013-07-13 07:49:00,59.7,49.5,29.75,WSW,256,1.0,2.0,69,0.00,,,0.00,meteohub,2013-07-13 13:49:00,
2013-07-13 07:54:00,60.1,49.5,29.76,West,278,2.0,2.0,68,0.00,,,0.00,meteohub,2013-07-13 13:54:00,
2013-07-13 08:00:00,60.4,49.5,29.76,South,184,2.0,2.0,67,0.00,,,0.00,meteohub,2013-07-13 14:00:00,
2013-07-13 08:05:00,60.8,49.5,29.76,NNW,327,3.0,3.0,66,0.00,,,0.00,meteohub,2013-07-13 14:05:00,
2013-07-13 08:10:00,60.6,50.7,29.76,West,274,3.0,7.0,70,0.00,,,0.00,meteohub,2013-07-13 14:10:00,
2013-07-13 08:15:00,60.6,49.3,29.76,NW,306,1.0,7.0,66,0.00,,,0.00,meteohub,2013-07-13 14:15:00,
2013-07-13 08:20:00,61.0,51.4,29.76,NE,43,1.0,7.0,71,0.00,,,0.00,meteohub,2013-07-13 14:20:00,
2013-07-13 08:25:00,61.0,52.0,29.76,North,11,0.0,4.0,72,0.00,,,0.00,meteohub,2013-07-13 14:25:00,
2013-07-13 08:30:00,61.3,49.8,29.77,SE,145,1.0,2.0,66,0.00,,,0.00,meteohub,2013-07-13 14:30:00,
2013-07-13 08:35:00,62.1,52.2,29.76,NW,311,0.0,2.0,70,0.00,,,0.00,meteohub,2013-07-13 14:35:00,
2013-07-13 08:40:00,62.4,50.0,29.76,WNW,287,0.0,3.0,64,0.00,,,0.00,meteohub,2013-07-13 14:40:00,
2013-07-13 08:46:00,62.8,51.3,29.76,SSW,209,0.0,3.0,66,0.00,,,0.00,meteohub,2013-07-13 14:46:00,
2013-07-13 08:51:00,63.1,49.1,29.76,SSE,150,1.0,3.0,60,0.00,,,0.00,meteohub,2013-07-13 14:51:00,
2013-07-13 08:56:00,63.9,48.7,29.76,SE,124,3.0,3.0,58,0.00,,,0.00,meteohub,2013-07-13 14:56:00,
2013-07-13 09:01:00,64.0,48.6,29.76,SW,217,1.0,5.0,57,0.00,,,0.00,meteohub,2013-07-13 15:01:00,
2013-07-13 09:06:00,64.6,48.9,29.75,WSW,238,0.0,5.0,57,0.00,,,0.00,meteohub,2013-07-13 15:06:00,
2013-07-13 09:11:00,64.9,48.9,29.75,WSW,238,0.0,5.0,56,0.00,,,0.00,meteohub,2013-07-13 15:11:00,
2013-07-13 09:16:00,65.1,48.0,29.75,SSE,166,3.0,3.0,54,0.00,,,0.00,meteohub,2013-07-13 15:16:00,
2013-07-13 09:21:00,65.5,48.4,29.75,North,6,1.0,4.0,54,0.00,,,0.00,meteohub,2013-07-13 15:21:00,
2013-07-13 09:26:00,65.7,47.5,29.75,WSW,246,2.0,4.0,52,0.00,,,0.00,meteohub,2013-07-13 15:26:00,
2013-07-13 09:31:00,66.0,48.4,29.75,NW,322,2.0,7.0,53,0.00,,,0.00,meteohub,2013-07-13 15:31:00,
2013-07-13 09:36:00,66.4,47.7,29.75,SSE,167,3.0,7.0,51,0.00,,,0.00,meteohub,2013-07-13 15:36:00,
2013-07-13 09:42:00,66.6,47.8,29.75,SSE,150,3.0,7.0,51,0.00,,,0.00,meteohub,2013-07-13 15:42:00,
2013-07-13 09:47:00,66.6,48.9,29.75,SSE,158,3.0,8.0,53,0.00,,,0.00,meteohub,2013-07-13 15:47:00,
2013-07-13 09:52:00,66.6,48.9,29.75,SSE,156,5.0,8.0,53,0.00,,,0.00,meteohub,2013-07-13 15:52:00,
2013-07-13 09:57:00,66.6,46.8,29.75,SW,219,5.0,8.0,49,0.00,,,0.00,meteohub,2013-07-13 15:57:00,
2013-07-13 10:02:00,66.7,49.1,29.75,SE,124,2.0,8.0,53,0.00,,,0.00,meteohub,2013-07-13 16:02:00,
2013-07-13 10:07:00,67.3,49.6,29.74,WNW,289,3.0,7.0,53,0.00,,,0.00,meteohub,2013-07-13 16:07:00,
2013-07-13 10:12:00,68.0,48.2,29.74,South,169,1.0,7.0,49,0.00,,,0.00,meteohub,2013-07-13 16:12:00,
2013-07-13 10:17:00,67.8,47.5,29.74,SE,142,4.0,7.0,48,0.00,,,0.00,meteohub,2013-07-13 16:17:00,
2013-07-13 10:22:00,68.0,48.2,29.74,SE,128,1.0,8.0,49,0.00,,,0.00,meteohub,2013-07-13 16:22:00,
2013-07-13 10:27:00,68.5,48.6,29.74,ESE,111,3.0,8.0,49,0.00,,,0.00,meteohub,2013-07-13 16:27:00,
2013-07-13 10:32:00,68.7,48.2,29.74,ESE,108,2.0,8.0,48,0.00,,,0.00,meteohub,2013-07-13 16:32:00,
2013-07-13 10:37:00,68.5,47.5,29.74,SE,139,4.0,7.0,47,0.00,,,0.00,meteohub,2013-07-13 16:37:00,
2013-07-13 10:42:00,69.1,48.6,29.74,WSW,238,2.0,7.0,48,0.00,,,0.00,meteohub,2013-07-13 16:42:00,
2013-07-13 10:47:00,69.3,46.9,29.74,West,272,2.0,7.0,45,0.00,,,0.00,meteohub,2013-07-13 16:47:00,
2013-07-13 10:52:00,69.3,48.7,29.74,NNW,333,5.0,6.0,48,0.00,,,0.00,meteohub,2013-07-13 16:52:00,
2013-07-13 10:57:00,69.8,47.5,29.73,SW,217,3.0,6.0,45,0.00,,,0.00,meteohub,2013-07-13 16:57:00,
2013-07-13 11:02:00,70.0,47.7,29.74,WNW,287,2.0,7.0,45,0.00,,,0.00,meteohub,2013-07-13 17:02:00,
2013-07-13 11:07:00,70.3,46.8,29.74,ESE,116,3.0,7.0,43,0.00,,,0.00,meteohub,2013-07-13 17:07:00,
2013-07-13 11:12:00,70.5,47.5,29.73,SE,142,3.0,9.0,44,0.00,,,0.00,meteohub,2013-07-13 17:12:00,
2013-07-13 11:17:00,70.9,47.8,29.73,SE,136,4.0,9.0,44,0.00,,,0.00,meteohub,2013-07-13 17:17:00,
2013-07-13 11:22:00,71.1,48.0,29.73,SW,228,4.0,9.0,44,0.00,,,0.00,meteohub,2013-07-13 17:22:00,
2013-07-13 11:28:00,71.4,48.4,29.73,SW,224,3.0,8.0,44,0.00,,,0.00,meteohub,2013-07-13 17:28:00,
2013-07-13 11:33:00,71.4,47.1,29.73,SSW,203,5.0,8.0,42,0.00,,,0.00,meteohub,2013-07-13 17:33:00,
2013-07-13 11:38:00,70.5,47.5,29.73,SE,136,2.0,8.0,44,0.00,,,0.00,meteohub,2013-07-13 17:38:00,
2013-07-13 11:43:00,70.0,47.1,29.73,SSE,150,6.0,7.0,44,0.00,,,0.00,meteohub,2013-07-13 17:43:00,
2013-07-13 11:48:00,69.1,46.8,29.74,SSW,195,2.0,8.0,45,0.00,,,0.00,meteohub,2013-07-13 17:48:00,
2013-07-13 11:53:00,68.5,47.5,29.74,SE,131,2.0,8.0,47,0.00,,,0.00,meteohub,2013-07-13 17:53:00,
2013-07-13 11:58:00,68.0,46.4,29.74,SW,215,2.0,8.0,46,0.00,,,0.00,meteohub,2013-07-13 17:58:00,
2013-07-13 12:03:00,67.8,48.0,29.74,East,81,2.0,8.0,49,0.00,,,0.00,meteohub,2013-07-13 18:03:00,
2013-07-13 12:09:00,67.5,48.2,29.74,SE,138,4.0,6.0,50,0.00,,,0.00,meteohub,2013-07-13 18:09:00,
2013-07-13 12:14:00,67.8,49.1,29.74,ESE,109,2.0,6.0,51,0.00,,,0.00,meteohub,2013-07-13 18:14:00,
2013-07-13 12:19:00,68.7,49.3,29.73,SSE,166,1.0,6.0,50,0.00,,,0.00,meteohub,2013-07-13 18:19:00,
2013-07-13 12:24:00,69.6,48.6,29.73,SE,142,1.0,6.0,47,0.00,,,0.00,meteohub,2013-07-13 18:24:00,
2013-07-13 12:29:00,70.0,47.7,29.73,WSW,240,1.0,7.0,45,0.00,,,0.00,meteohub,2013-07-13 18:29:00,
2013-07-13 12:34:00,70.3,47.5,29.73,SSW,205,2.0,7.0,44,0.00,,,0.00,meteohub,2013-07-13 18:34:00,
2013-07-13 12:39:00,71.4,45.9,29.73,ESE,120,1.0,7.0,40,0.00,,,0.00,meteohub,2013-07-13 18:39:00,
2013-07-13 12:44:00,72.7,46.2,29.73,West,276,1.0,7.0,39,0.00,,,0.00,meteohub,2013-07-13 18:44:00,
2013-07-13 12:49:00,72.1,45.1,29.72,West,260,1.0,8.0,38,0.00,,,0.00,meteohub,2013-07-13 18:49:00,
2013-07-13 12:54:00,71.8,46.2,29.72,NW,317,1.0,10.0,40,0.00,,,0.00,meteohub,2013-07-13 18:54:00,
2013-07-13 13:00:00,72.7,46.9,29.72,SSE,158,1.0,10.0,40,0.00,,,0.00,meteohub,2013-07-13 19:00:00,
2013-07-13 13:05:00,73.6,47.8,29.72,NW,312,1.0,10.0,40,0.00,,,0.00,meteohub,2013-07-13 19:05:00,
2013-07-13 13:10:00,73.6,47.1,29.72,SSE,155,2.0,6.0,39,0.00,,,0.00,meteohub,2013-07-13 19:10:00,
2013-07-13 13:15:00,73.8,48.0,29.71,SSW,212,3.0,6.0,40,0.00,,,0.00,meteohub,2013-07-13 19:15:00,
2013-07-13 13:20:00,72.9,47.1,29.71,SE,137,1.0,6.0,40,0.00,,,0.00,meteohub,2013-07-13 19:20:00,
2013-07-13 13:25:00,72.1,47.8,29.71,ESE,111,2.0,7.0,42,0.00,,,0.00,meteohub,2013-07-13 19:25:00,
2013-07-13 13:30:00,72.9,47.8,29.71,SW,230,4.0,8.0,41,0.00,,,0.00,meteohub,2013-07-13 19:30:00,
2013-07-13 13:35:00,73.4,46.2,29.70,SSE,160,1.0,8.0,38,0.00,,,0.00,meteohub,2013-07-13 19:35:00,
2013-07-13 13:40:00,73.9,46.8,29.70,SSW,204,1.0,8.0,38,0.00,,,0.00,meteohub,2013-07-13 19:40:00,
2013-07-13 13:45:00,73.2,47.5,29.70,SW,214,2.0,7.0,40,0.00,,,0.00,meteohub,2013-07-13 19:45:00,
2013-07-13 13:51:00,73.6,47.8,29.70,ESE,105,2.0,7.0,40,0.00,,,0.00,meteohub,2013-07-13 19:51:00,
2013-07-13 13:56:00,73.8,47.3,29.70,ESE,114,3.0,5.0,39,0.00,,,0.00,meteohub,2013-07-13 19:56:00,
2013-07-13 14:01:00,72.7,47.7,29.70,ESE,104,4.0,6.0,41,0.00,,,0.00,meteohub,2013-07-13 20:01:00,
2013-07-13 14:06:00,72.9,47.1,29.70,SSE,167,1.0,6.0,40,0.00,,,0.00,meteohub,2013-07-13 20:06:00,
2013-07-13 14:11:00,73.0,48.0,29.70,SE,125,4.0,5.0,41,0.00,,,0.00,meteohub,2013-07-13 20:11:00,
2013-07-13 14:16:00,73.0,48.0,29.70,SE,130,2.0,6.0,41,0.00,,,0.00,meteohub,2013-07-13 20:16:00,
2013-07-13 14:21:00,73.8,48.0,29.70,West,266,2.0,6.0,40,0.00,,,0.00,meteohub,2013-07-13 20:21:00,
2013-07-13 14:26:00,74.5,49.3,29.70,SSW,204,1.0,6.0,41,0.00,,,0.00,meteohub,2013-07-13 20:26:00,
2013-07-13 14:31:00,75.9,48.6,29.70,ESE,108,2.0,4.0,38,0.00,,,0.00,meteohub,2013-07-13 20:31:00,
2013-07-13 14:36:00,75.7,45.3,29.70,West,267,1.0,6.0,34,0.00,,,0.00,meteohub,2013-07-13 20:36:00,
2013-07-13 14:41:00,75.6,43.7,29.70,SSW,195,3.0,6.0,32,0.00,,,0.00,meteohub,2013-07-13 20:41:00,
2013-07-13 14:46:00,76.1,48.6,29.70,South,191,1.0,6.0,38,0.00,,,0.00,meteohub,2013-07-13 20:46:00,
2013-07-13 14:52:00,77.5,46.2,29.70,SSW,197,2.0,5.0,33,0.00,,,0.00,meteohub,2013-07-13 20:52:00,
2013-07-13 14:57:00,78.8,45.7,29.70,SW,217,2.0,6.0,31,0.00,,,0.00,meteohub,2013-07-13 20:57:00,
2013-07-13 15:02:00,77.5,43.7,29.69,SE,136,3.0,10.0,30,0.00,,,0.00,meteohub,2013-07-13 21:02:00,
2013-07-13 15:07:00,76.8,44.8,29.69,South,181,3.0,10.0,32,0.00,,,0.00,meteohub,2013-07-13 21:07:00,
2013-07-13 15:12:00,75.6,44.4,29.69,SE,129,2.0,10.0,33,0.00,,,0.00,meteohub,2013-07-13 21:12:00,
2013-07-13 15:17:00,75.9,45.5,29.69,SW,222,2.0,6.0,34,0.00,,,0.00,meteohub,2013-07-13 21:17:00,
2013-07-13 15:22:00,77.2,45.9,29.68,East,101,3.0,7.0,33,0.00,,,0.00,meteohub,2013-07-13 21:22:00,
2013-07-13 15:27:00,77.7,45.5,29.68,SE,132,5.0,7.0,32,0.00,,,0.00,meteohub,2013-07-13 21:27:00,
2013-07-13 15:32:00,77.4,44.4,29.69,SE,124,3.0,7.0,31,0.00,,,0.00,meteohub,2013-07-13 21:32:00,
2013-07-13 15:37:00,76.8,43.0,29.69,ESE,114,2.0,7.0,30,0.00,,,0.00,meteohub,2013-07-13 21:37:00,
2013-07-13 15:42:00,77.0,43.2,29.69,ESE,102,6.0,7.0,30,0.00,,,0.00,meteohub,2013-07-13 21:42:00,
2013-07-13 15:47:00,77.4,42.6,29.69,SW,222,1.0,7.0,29,0.00,,,0.00,meteohub,2013-07-13 21:47:00,
2013-07-13 15:53:00,76.6,42.8,29.69,SSE,162,6.0,6.0,30,0.00,,,0.00,meteohub,2013-07-13 21:53:00,
2013-07-13 15:58:00,74.8,43.9,29.69,ESE,119,3.0,8.0,33,0.00,,,0.00,meteohub,2013-07-13 21:58:00,
2013-07-13 16:03:00,72.3,47.3,29.70,SE,137,11.0,11.0,41,0.00,,,0.00,meteohub,2013-07-13 22:03:00,
2013-07-13 16:08:00,69.3,47.7,29.70,SE,133,8.0,14.0,46,0.00,,,0.00,meteohub,2013-07-13 22:08:00,
2013-07-13 16:13:00,68.2,48.9,29.71,South,184,11.0,18.0,50,0.00,,,0.00,meteohub,2013-07-13 22:13:00,
2013-07-13 16:18:00,67.5,48.7,29.70,SSW,212,7.0,18.0,51,0.00,,,0.00,meteohub,2013-07-13 22:18:00,
2013-07-13 16:24:00,66.7,48.6,29.70,SSE,162,4.0,18.0,52,0.00,,,0.00,meteohub,2013-07-13 22:24:00,
2013-07-13 16:29:00,66.0,49.5,29.70,SSE,164,4.0,14.0,55,0.00,,,0.00,meteohub,2013-07-13 22:29:00,
2013-07-13 16:34:00,64.9,48.9,29.70,SE,145,5.0,14.0,56,0.00,,,0.00,meteohub,2013-07-13 22:34:00,
2013-07-13 16:39:00,64.0,48.9,29.70,SW,214,3.0,19.0,58,0.00,,,0.00,meteohub,2013-07-13 22:39:00,
2013-07-13 16:44:00,63.9,49.3,29.70,SE,145,6.0,19.0,59,0.00,,,0.00,meteohub,2013-07-13 22:44:00,
2013-07-13 16:49:00,63.1,49.1,29.70,SE,128,5.0,19.0,60,0.00,,,0.00,meteohub,2013-07-13 22:49:00,
2013-07-13 16:54:00,62.8,49.1,29.69,South,179,4.0,12.0,61,0.00,,,0.00,meteohub,2013-07-13 22:54:00,
2013-07-13 16:59:00,62.4,48.7,29.69,SE,142,4.0,12.0,61,0.00,,,0.00,meteohub,2013-07-13 22:59:00,
2013-07-13 17:04:00,62.2,48.6,29.69,SSE,155,4.0,11.0,61,0.00,,,0.00,meteohub,2013-07-13 23:04:00,
2013-07-13 17:10:00,62.4,48.4,29.69,SE,132,5.0,9.0,60,0.00,,,0.00,meteohub,2013-07-13 23:10:00,
2013-07-13 17:15:00,62.4,47.8,29.69,South,176,3.0,9.0,59,0.00,,,0.00,meteohub,2013-07-13 23:15:00,
2013-07-13 17:20:00,62.8,47.8,29.68,SE,124,3.0,10.0,58,-99.99,,,0.00,meteohub,2013-07-13 23:20:00,
2013-07-13 17:25:00,63.0,48.0,29.68,SE,141,3.0,10.0,58,0.00,,,0.00,meteohub,2013-07-13 23:25:00,
2013-07-13 17:30:00,63.3,47.8,29.68,SE,142,2.0,7.0,57,0.00,,,0.00,meteohub,2013-07-13 23:30:00,